Startpagina
METAR-TAF:

METAR-TAF

Vliegvelden :

Nadi International Airport

Nadi, Fiji

breedte: 17-45S, lengte: 177-27E, hoogte: 13 m

Actueel weer

Dit bericht is 47 minuten geleden gemaakt, om 13:00 UTC
Wind 5 kt uit het oosten
Temperatuur 23°C
Vochtigheid 83%
Druk 1013 hPa
Zicht 10 km of meer
Verspreide wolken op 2500 ft
Gebroken wolken op 4700 ft

METAR: NFFN 231300Z 10005KT 9999 SCT025 BKN047 23/20 Q1013 NOSIG

Tijdstip: 01:47 (13:47 UTC)

Verwachting

Dit bericht is 2 uur en het 47 minuten geleden gemaakt, om 11:00 UTC
Verwachting geldig van 23 om 12 UTC tot 24 om 12 UTC
Wind 6 kt uit het zuidoosten
Zicht 10 km of meer
Verspreide wolken op 2000 ft
Gebroken wolken op 4500 ft
Wijzigt naar
van 23 om 22 UTC tot 23 om 24 UTC
Wind 10 kt uit het westzuidwesten
Wijzigt naar
van 24 om 04 UTC tot 24 om 06 UTC
Wind 8 kt uit het oostzuidoosten

TAF: NFFN 231100Z 2312/2412 13006KT 9999 SCT020 BKN045 BECMG 2322/2324 24010KT BECMG 2404/2406 12008KT

Waarnemingen en weersverwachtingen van meer dan 4000 vliegvelden (METAR en TAF).

De beschikbare stations zijn de gele en rode punten op de kaart.

Ga met uw muis naar het station om de naam te zien.

Klik dan om waarnemingen en weersverwachtingen te zien.

kaart wijzigen: klik op de groene knoppen met een zwart kruis om in te zoomen, op de groene knop met een streepje om uit te zoomen of op de groene pijlen voor aangrenzende kaarten.


METAR-TAF: